Time;durP1;ratioP1;P1;durP2;ratioP2;P2;SDS_P1;SDS_P2;PMS_P1;PMS_P2;Temp;Humidity;BMP_temperature;BMP_pressure;BME280_temperature;BME280_humidity;BME280_pressure;Samples;Min_cycle;Max_cycle;Signal;HPM_P1;HPM_P2
2023/10/26 00:00:20;;;;;;;46.50;22.98;;;;;;;10.51;100.00;98519.47;5061047;28;20059;-84
2023/10/26 00:02:46;;;;;;;43.13;22.15;;;;;;;10.65;100.00;98534.63;5043719;28;20029;-85
2023/10/26 00:05:11;;;;;;;36.13;19.98;;;;;;;10.63;100.00;98532.31;5062064;28;20029;-85
2023/10/26 00:07:38;;;;;;;37.60;21.50;;;;;;;10.76;100.00;98537.38;5058174;28;20492;-85
2023/10/26 00:10:06;;;;;;;35.22;21.05;;;;;;;10.76;100.00;98549.56;5043973;28;20036;-86
2023/10/26 00:12:34;;;;;;;38.47;21.65;;;;;;;10.71;100.00;98541.84;5064014;28;20052;-86
2023/10/26 00:15:00;;;;;;;35.50;19.23;;;;;;;10.80;100.00;98540.69;5062414;28;20056;-84
2023/10/26 00:17:25;;;;;;;37.25;19.42;;;;;;;10.77;100.00;98533.97;5040551;28;20462;-85
2023/10/26 00:19:55;;;;;;;36.35;20.27;;;;;;;10.83;100.00;98517.53;5057129;28;20383;-85
2023/10/26 00:22:22;;;;;;;34.05;20.05;;;;;;;10.86;100.00;98527.13;5055655;28;20045;-86
2023/10/26 00:24:50;;;;;;;31.35;18.65;;;;;;;10.86;100.00;98521.41;5038009;28;20040;-86
2023/10/26 00:27:17;;;;;;;40.72;20.23;;;;;;;10.88;100.00;98535.91;5040322;28;20066;-87
2023/10/26 00:29:44;;;;;;;35.10;20.20;;;;;;;10.86;100.00;98527.91;5058218;28;20013;-88
2023/10/26 00:32:15;;;;;;;31.92;18.73;;;;;;;10.85;100.00;98509.19;5056272;28;20554;-87
2023/10/26 00:34:40;;;;;;;36.38;19.48;;;;;;;10.89;100.00;98518.22;5060994;28;20453;-89
2023/10/26 00:37:07;;;;;;;33.40;18.27;;;;;;;10.81;100.00;98520.16;5041055;28;20037;-87
2023/10/26 00:39:33;;;;;;;32.88;17.95;;;;;;;10.70;100.00;98496.66;5058248;28;20047;-89
2023/10/26 00:42:04;;;;;;;37.97;19.73;;;;;;;10.85;100.00;98519.84;5055909;28;20039;-87
2023/10/26 00:44:29;;;;;;;34.40;19.02;;;;;;;10.79;100.00;98511.34;5054663;28;20048;-86
2023/10/26 00:46:55;;;;;;;39.78;19.58;;;;;;;10.69;100.00;98495.88;5053025;28;20052;-85
2023/10/26 00:49:21;;;;;;;39.58;20.08;;;;;;;10.78;100.00;98503.31;5057490;28;20431;-87
2023/10/26 00:52:05;;;;;;;33.42;18.27;;;;;;;10.76;100.00;98508.81;5039365;28;20382;-86
2023/10/26 00:54:32;;;;;;;39.80;18.55;;;;;;;10.71;100.00;98506.78;5038916;28;20029;-86
2023/10/26 00:57:02;;;;;;;35.72;17.88;;;;;;;10.59;100.00;98488.22;5055416;28;20175;-84
2023/10/26 00:59:29;;;;;;;36.38;20.05;;;;;;;10.70;100.00;98506.00;5053554;28;20104;-85
2023/10/26 01:01:56;;;;;;;35.38;19.20;;;;;;;10.67;100.00;98509.94;5054825;28;20029;-82
2023/10/26 01:04:23;;;;;;;38.83;21.23;;;;;;;10.64;100.00;98513.88;5037160;28;20083;-84
2023/10/26 01:06:48;;;;;;;42.97;18.80;;;;;;;10.60;100.00;98524.81;5037275;28;20500;-84
2023/10/26 01:09:19;;;;;;;41.40;19.85;;;;;;;10.52;100.00;98515.31;5040407;28;20127;-83
2023/10/26 01:11:47;;;;;;;38.47;20.40;;;;;;;10.59;100.00;98516.78;5057668;28;20029;-83
2023/10/26 01:14:13;;;;;;;34.38;19.25;;;;;;;10.56;100.00;98518.63;5058651;28;20025;-84
2023/10/26 01:16:41;;;;;;;35.97;20.20;;;;;;;10.53;100.00;98497.63;5057372;28;20060;-83
2023/10/26 01:19:08;;;;;;;36.25;20.08;;;;;;;10.54;100.00;98489.84;5057463;28;20029;-83
2023/10/26 01:21:53;;;;;;;33.67;19.00;;;;;;;10.51;100.00;98508.84;5058667;28;20028;-84
2023/10/26 01:24:33;;;;;;;38.58;20.20;;;;;;;10.50;100.00;98515.06;5058246;28;20078;-83
2023/10/26 01:27:00;;;;;;;40.83;21.08;;;;;;;10.50;100.00;98506.50;5056779;28;20466;-84
2023/10/26 01:29:25;;;;;;;39.08;18.83;;;;;;;10.49;100.00;98497.16;5057773;28;20486;-84
2023/10/26 01:31:52;;;;;;;36.58;19.17;;;;;;;10.41;100.00;98478.31;5056694;28;20021;-83
2023/10/26 01:34:18;;;;;;;37.30;20.38;;;;;;;10.47;100.00;98485.50;5058287;28;20044;-83
2023/10/26 01:36:46;;;;;;;37.75;19.67;;;;;;;10.30;100.00;98450.66;5058716;28;20021;-83
2023/10/26 01:39:13;;;;;;;34.95;19.75;;;;;;;10.45;100.00;98473.84;5061848;28;20044;-82
2023/10/26 01:41:39;;;;;;;39.33;20.27;;;;;;;10.41;100.00;98452.63;5062988;28;20071;-81
2023/10/26 01:44:05;;;;;;;38.38;19.60;;;;;;;10.35;100.00;98438.41;5062993;28;20075;-82
2023/10/26 01:46:32;;;;;;;36.33;18.90;;;;;;;10.32;100.00;98444.41;5057212;28;20049;-84
2023/10/26 01:49:02;;;;;;;37.60;19.63;;;;;;;10.30;100.00;98435.63;5041198;28;20068;-83
2023/10/26 01:51:27;;;;;;;37.30;20.55;;;;;;;10.26;100.00;98429.44;5057138;28;20031;-82
2023/10/26 01:53:53;;;;;;;41.42;20.30;;;;;;;10.26;100.00;98432.28;5056914;28;20111;-83
2023/10/26 01:56:39;;;;;;;38.60;20.40;;;;;;;10.32;100.00;98436.63;5057128;28;20112;-83
2023/10/26 01:59:05;;;;;;;38.10;19.98;;;;;;;10.31;100.00;98440.78;5057525;28;20044;-82
2023/10/26 02:01:30;;;;;;;41.13;18.88;;;;;;;10.37;100.00;98447.22;5040196;28;20020;-83
2023/10/26 02:03:57;;;;;;;31.48;18.50;;;;;;;10.39;100.00;98440.94;5058919;28;20048;-82
2023/10/26 02:06:22;;;;;;;34.75;18.75;;;;;;;10.43;100.00;98433.63;5039505;28;20037;-82
2023/10/26 02:09:02;;;;;;;35.67;19.33;;;;;;;10.46;100.00;98429.72;5057640;28;20116;-82
2023/10/26 02:11:29;;;;;;;35.10;17.75;;;;;;;10.46;100.00;98426.06;5058145;28;20021;-82
2023/10/26 02:13:54;;;;;;;38.67;18.40;;;;;;;10.37;100.00;98406.47;5056333;28;20037;-81
2023/10/26 02:16:20;;;;;;;35.75;18.08;;;;;;;10.48;100.00;98415.66;5054519;28;20489;-83
2023/10/26 02:18:46;;;;;;;35.25;19.77;;;;;;;10.46;100.00;98421.16;5037550;28;20032;-84
2023/10/26 02:21:12;;;;;;;39.22;19.55;;;;;;;10.43;100.00;98405.06;5055649;28;20023;-82
2023/10/26 02:23:52;;;;;;;37.55;19.50;;;;;;;10.45;100.00;98401.69;5055545;28;20047;-82
2023/10/26 02:26:19;;;;;;;36.70;19.02;;;;;;;10.45;100.00;98393.13;5054408;28;20488;-82
2023/10/26 02:28:45;;;;;;;35.85;19.05;;;;;;;10.48;100.00;98398.50;5055695;28;20551;-80
2023/10/26 02:31:12;;;;;;;31.67;18.13;;;;;;;10.51;100.00;98399.53;5055606;28;20033;-81
2023/10/26 02:33:38;;;;;;;33.08;18.92;;;;;;;10.49;100.00;98390.72;5054496;28;20039;-82
2023/10/26 02:36:06;;;;;;;32.10;18.02;;;;;;;10.46;100.00;98391.81;5055417;28;20017;-83
2023/10/26 02:38:32;;;;;;;37.75;19.67;;;;;;;10.48;100.00;98394.91;5055364;28;20049;-82
2023/10/26 02:41:05;;;;;;;32.25;18.38;;;;;;;10.45;100.00;98381.69;5037290;28;20052;-83
2023/10/26 02:43:33;;;;;;;34.13;18.75;;;;;;;10.43;100.00;98370.06;5053916;28;20041;-81
2023/10/26 02:46:06;;;;;;;36.65;19.63;;;;;;;10.42;100.00;98366.44;5053593;28;20206;-82
2023/10/26 02:48:39;;;;;;;36.55;18.83;;;;;;;10.49;100.00;98365.03;5053848;28;20021;-82
2023/10/26 02:51:08;;;;;;;32.42;17.27;;;;;;;10.49;100.00;98359.31;5038193;28;20049;-83
2023/10/26 02:53:34;;;;;;;31.77;17.85;;;;;;;10.52;100.00;98366.81;5055011;28;20060;-83
2023/10/26 02:55:59;;;;;;;29.50;18.23;;;;;;;10.51;100.00;98348.91;5054829;28;20060;-84
2023/10/26 02:58:26;;;;;;;32.97;18.42;;;;;;;10.49;100.00;98351.53;5037377;28;20543;-84
2023/10/26 03:00:55;;;;;;;29.58;17.73;;;;;;;10.51;100.00;98362.41;5054949;28;20044;-83
2023/10/26 03:03:22;;;;;;;31.25;17.73;;;;;;;10.43;100.00;98347.22;5036961;28;20393;-82
2023/10/26 03:05:49;;;;;;;35.00;19.33;;;;;;;10.50;100.00;98364.50;5037603;28;20167;-84
2023/10/26 03:08:17;;;;;;;29.02;16.50;;;;;;;10.50;100.00;98358.78;5054819;28;20033;-82
2023/10/26 03:10:46;;;;;;;30.67;17.55;;;;;;;10.44;100.00;98340.94;5054867;28;20029;-81
2023/10/26 03:13:14;;;;;;;31.58;17.50;;;;;;;10.55;100.00;98357.16;5055122;28;20037;-84
2023/10/26 03:15:41;;;;;;;32.63;16.95;;;;;;;10.47;100.00;98339.09;5056944;28;20060;-82
2023/10/26 03:18:08;;;;;;;30.40;16.85;;;;;;;10.59;100.00;98348.28;5057259;28;20021;-82
2023/10/26 03:20:33;;;;;;;33.20;16.40;;;;;;;10.50;100.00;98332.31;5055710;28;20031;-82
2023/10/26 03:23:00;;;;;;;32.72;16.60;;;;;;;10.57;100.00;98339.50;5054124;28;20094;-82
2023/10/26 03:25:27;;;;;;;28.33;17.05;;;;;;;10.60;100.00;98347.75;5053827;28;20044;-82
2023/10/26 03:27:54;;;;;;;31.65;17.00;;;;;;;10.59;100.00;98339.72;5053428;28;20055;-82
2023/10/26 03:30:20;;;;;;;27.55;16.67;;;;;;;10.58;100.00;98333.22;5052463;28;20466;-82
2023/10/26 03:32:47;;;;;;;28.75;15.80;;;;;;;10.57;100.00;98334.56;5053288;28;20078;-83
2023/10/26 03:35:16;;;;;;;33.00;16.70;;;;;;;10.54;100.00;98335.63;5061976;28;20028;-83
2023/10/26 03:37:42;;;;;;;28.85;16.48;;;;;;;10.55;100.00;98326.53;5074893;28;20072;-82
2023/10/26 03:40:07;;;;;;;29.58;17.00;;;;;;;10.60;100.00;98333.47;5077400;28;20009;-82
2023/10/26 03:42:54;;;;;;;31.95;17.00;;;;;;;10.62;100.00;98336.56;5078179;28;20017;-82
2023/10/26 03:45:19;;;;;;;31.17;17.75;;;;;;;10.63;100.00;98335.22;5074184;28;20031;-82
2023/10/26 03:47:46;;;;;;;29.63;17.02;;;;;;;10.62;100.00;98325.13;5076744;28;20066;-83
2023/10/26 03:50:11;;;;;;;26.13;17.10;;;;;;;10.62;100.00;98325.13;5073957;28;20065;-84
2023/10/26 03:52:39;;;;;;;26.88;15.98;;;;;;;10.48;100.00;98304.28;5055214;28;20024;-83
2023/10/26 03:55:06;;;;;;;29.83;16.73;;;;;;;10.60;100.00;98315.56;5054508;28;20024;-83
2023/10/26 03:57:33;;;;;;;31.25;17.15;;;;;;;10.59;100.00;98308.28;5036477;28;20028;-82
2023/10/26 03:59:59;;;;;;;29.17;17.42;;;;;;;10.55;100.00;98305.75;5036208;28;20025;-83
2023/10/26 04:02:26;;;;;;;30.83;15.93;;;;;;;10.52;100.00;98301.13;5054738;28;20461;-84
2023/10/26 04:04:51;;;;;;;28.52;16.05;;;;;;;10.51;100.00;98293.88;5053913;28;20029;-85
2023/10/26 04:07:18;;;;;;;29.58;16.65;;;;;;;10.45;100.00;98290.31;5050947;28;20041;-82
2023/10/26 04:09:45;;;;;;;28.42;16.73;;;;;;;10.44;100.00;98286.69;5053683;28;20021;-82
2023/10/26 04:12:11;;;;;;;28.42;15.20;;;;;;;10.40;100.00;98283.38;5053527;28;20025;-82
2023/10/26 04:14:37;;;;;;;30.02;16.75;;;;;;;10.41;100.00;98279.22;5052088;28;20430;-82
2023/10/26 04:17:05;;;;;;;24.02;14.65;;;;;;;10.36;100.00;98268.66;5052025;28;20013;-83
2023/10/26 04:19:33;;;;;;;23.88;15.05;;;;;;;10.29;100.00;98274.97;5052952;28;20108;-82
2023/10/26 04:22:00;;;;;;;26.20;15.27;;;;;;;10.31;100.00;98272.38;5053723;28;20055;-83
2023/10/26 04:24:26;;;;;;;26.83;14.82;;;;;;;10.29;100.00;98274.19;5052137;28;20041;-81
2023/10/26 04:26:53;;;;;;;34.63;16.10;;;;;;;10.25;100.00;98271.66;5035520;28;20083;-81
2023/10/26 04:29:20;;;;;;;30.38;15.65;;;;;;;10.24;100.00;98267.25;5052411;28;20121;-79
2023/10/26 04:31:46;;;;;;;28.63;15.85;;;;;;;10.17;100.00;98250.78;5053701;28;20378;-79
2023/10/26 04:34:13;;;;;;;28.75;17.85;;;;;;;10.20;100.00;98258.25;5053418;28;20047;-80
2023/10/26 04:36:40;;;;;;;27.98;15.45;;;;;;;10.18;100.00;98249.47;5035518;28;20021;-79
2023/10/26 04:39:09;;;;;;;30.77;16.35;;;;;;;10.17;100.00;98244.28;5052470;28;20071;-80
2023/10/26 04:41:37;;;;;;;28.58;15.55;;;;;;;10.13;100.00;98241.75;5052102;28;20103;-79
2023/10/26 04:44:05;;;;;;;28.42;15.93;;;;;;;10.13;100.00;98246.69;5053312;28;20036;-83
2023/10/26 04:46:33;;;;;;;32.45;15.55;;;;;;;10.14;100.00;98236.81;5055440;28;20391;-81
2023/10/26 04:49:01;;;;;;;23.60;14.93;;;;;;;10.12;100.00;98228.78;5055349;28;20390;-82
2023/10/26 04:51:27;;;;;;;27.85;15.48;;;;;;;10.14;100.00;98225.41;5055269;28;20025;-81
2023/10/26 04:53:55;;;;;;;25.35;15.13;;;;;;;10.15;100.00;98229.78;5053654;28;20087;-80
2023/10/26 04:56:21;;;;;;;30.27;15.10;;;;;;;10.15;100.00;98232.63;5035228;28;20020;-81
2023/10/26 04:58:50;;;;;;;26.42;14.60;;;;;;;10.17;100.00;98224.31;5052001;28;20106;-79
2023/10/26 05:01:17;;;;;;;25.55;15.57;;;;;;;10.16;100.00;98226.41;5055419;28;20072;-81
2023/10/26 05:03:47;;;;;;;25.05;14.65;;;;;;;10.17;100.00;98227.94;5035057;28;20052;-82
2023/10/26 05:06:14;;;;;;;23.33;14.30;;;;;;;10.18;100.00;98223.00;5051897;28;20029;-81
2023/10/26 05:08:40;;;;;;;27.17;14.27;;;;;;;10.15;100.00;98212.66;5051895;28;20032;-81
2023/10/26 05:11:07;;;;;;;27.40;14.52;;;;;;;10.11;100.00;98210.13;5051062;28;20021;-79
2023/10/26 05:13:33;;;;;;;26.83;15.35;;;;;;;10.21;100.00;98219.06;5051309;28;20032;-75
2023/10/26 05:16:01;;;;;;;25.85;14.13;;;;;;;10.11;100.00;98210.91;5051260;28;20135;-75
2023/10/26 05:18:34;;;;;;;26.85;15.82;;;;;;;10.26;100.00;98221.06;5052063;28;20029;-74
2023/10/26 05:21:01;;;;;;;22.85;13.10;;;;;;;10.29;100.00;98212.19;5052585;28;20112;-73
2023/10/26 05:23:28;;;;;;;22.02;13.45;;;;;;;10.34;100.00;98221.97;5052587;28;20029;-77
2023/10/26 05:25:54;;;;;;;27.30;13.45;;;;;;;10.31;100.00;98215.28;5051734;28;20432;-77
2023/10/26 05:28:19;;;;;;;24.27;13.40;;;;;;;10.35;100.00;98214.94;5052582;28;20032;-76
2023/10/26 05:30:51;;;;;;;20.27;13.45;;;;;;;10.39;100.00;98209.69;5051509;28;20040;-77
2023/10/26 05:33:16;;;;;;;;;;;;;;;10.43;100.00;98210.91;5049618;28;20041;-75
2023/10/26 05:35:46;;;;;;;23.88;13.20;;;;;;;10.47;100.00;98213.47;5051729;28;19916;-75
2023/10/26 05:38:12;;;;;;;18.30;11.23;;;;;;;10.51;100.00;98211.84;5051635;28;20033;-76
2023/10/26 05:40:38;;;;;;;20.75;11.10;;;;;;;10.41;100.00;98192.78;5051633;28;20040;-75
2023/10/26 05:43:06;;;;;;;17.00;10.95;;;;;;;10.66;100.00;98219.13;5051431;28;20486;-77
2023/10/26 05:45:39;;;;;;;15.93;10.45;;;;;;;10.71;100.00;98210.47;5051127;28;20025;-75
2023/10/26 05:48:09;;;;;;;17.25;9.80;;;;;;;10.85;100.00;98219.84;5051697;28;20039;-77
2023/10/26 05:50:40;;;;;;;13.98;8.02;;;;;;;10.92;100.00;98219.97;5052408;28;20025;-78
2023/10/26 05:53:10;;;;;;;13.43;8.05;;;;;;;10.97;100.00;98216.22;5037107;28;20033;-77
2023/10/26 05:55:44;;;;;;;12.02;6.95;;;;;;;11.08;100.00;98214.47;5071618;28;20028;-77
2023/10/26 05:58:12;;;;;;;13.65;7.88;;;;;;;11.12;100.00;98212.91;5054783;28;20390;-78
2023/10/26 06:00:39;;;;;;;12.07;7.65;;;;;;;11.19;100.00;98214.31;5055998;28;20020;-77
2023/10/26 06:03:04;;;;;;;12.13;6.43;;;;;;;11.22;100.00;98216.84;5054664;28;20116;-76
2023/10/26 06:05:30;;;;;;;10.07;6.32;;;;;;;11.31;100.00;98227.09;5056000;28;20105;-75
2023/10/26 06:07:57;;;;;;;9.85;5.75;;;;;;;11.38;100.00;98230.06;5054383;28;20025;-75
2023/10/26 06:10:24;;;;;;;9.00;4.57;;;;;;;11.45;100.00;98230.72;5055829;28;20024;-76
2023/10/26 06:12:49;;;;;;;9.52;4.78;;;;;;;11.54;100.00;98231.03;5055430;28;20044;-75
2023/10/26 06:15:17;;;;;;;7.38;4.55;;;;;;;11.61;100.00;98230.41;5055237;28;20264;-76
2023/10/26 06:17:51;;;;;;;7.72;4.20;;;;;;;11.68;100.00;98241.16;5052946;28;20031;-75
2023/10/26 06:20:27;;;;;;;5.78;4.22;;;;;;;11.76;100.00;98241.28;5053007;28;20047;-75
2023/10/26 06:22:56;;;;;;;5.13;3.13;;;;;;;11.85;100.00;98240.81;5054543;28;20052;-76
2023/10/26 06:25:25;;;;;;;4.30;3.13;;;;;;;11.93;100.00;98250.28;5054178;28;20032;-76
2023/10/26 06:27:57;;;;;;;2.95;2.13;;;;;;;11.90;100.00;98239.16;5053293;28;20078;-74
2023/10/26 06:30:26;;;;;;;2.00;1.80;;;;;;;12.06;100.00;98247.38;5068762;28;20234;-74
2023/10/26 06:32:52;;;;;;;3.60;2.35;;;;;;;12.12;100.00;98242.28;5053788;28;20028;-76
2023/10/26 06:35:18;;;;;;;1.65;1.40;;;;;;;12.15;100.00;98244.06;5055488;28;20379;-76
2023/10/26 06:37:43;;;;;;;1.60;1.23;;;;;;;12.27;100.00;98247.44;5055725;28;20025;-75
2023/10/26 06:40:09;;;;;;;1.45;1.20;;;;;;;12.38;100.00;98252.94;5054012;28;20025;-76
2023/10/26 06:42:36;;;;;;;2.85;1.10;;;;;;;12.44;100.00;98247.09;5055239;28;20484;-77
2023/10/26 06:45:10;;;;;;;3.35;1.15;;;;;;;12.61;100.00;98248.22;5054313;28;20138;-76
2023/10/26 06:47:38;;;;;;;3.05;0.93;;;;;;;12.67;100.00;98246.00;5053534;28;20045;-75
2023/10/26 06:50:06;;;;;;;1.65;1.02;;;;;;;12.84;100.00;98254.19;5055083;28;20021;-77
2023/10/26 06:52:38;;;;;;;2.55;1.27;;;;;;;12.94;100.00;98258.13;5055493;28;20071;-75
2023/10/26 06:55:04;;;;;;;3.40;0.98;;;;;;;13.07;100.00;98258.03;5054991;28;20025;-75
2023/10/26 06:57:34;;;;;;;0.77;0.77;;;;;;;13.20;100.00;98260.03;5055257;28;20498;-77
2023/10/26 07:00:02;;;;;;;1.30;0.98;;;;;;;13.34;100.00;98257.88;5055154;28;20017;-76
2023/10/26 07:02:30;;;;;;;1.80;1.38;;;;;;;13.45;100.00;98255.44;5054248;28;20433;-76
2023/10/26 07:04:59;;;;;;;1.50;1.40;;;;;;;13.55;100.00;98250.78;5055136;28;20371;-75
2023/10/26 07:07:27;;;;;;;2.22;1.23;;;;;;;13.68;100.00;98252.78;5053340;28;20116;-76
2023/10/26 07:09:57;;;;;;;7.13;1.48;;;;;;;13.78;100.00;98255.91;5054508;28;20037;-75
2023/10/26 07:12:24;;;;;;;1.13;0.90;;;;;;;13.88;100.00;98260.56;5053453;28;20094;-75
2023/10/26 07:15:05;;;;;;;5.90;1.00;;;;;;;14.01;100.00;98253.13;5053564;28;20440;-75
2023/10/26 07:17:30;;;;;;;2.08;1.20;;;;;;;14.12;100.00;98258.56;5051870;28;20036;-76
2023/10/26 07:19:55;;;;;;;1.67;1.00;;;;;;;14.23;100.00;98261.84;5054275;28;20066;-75
2023/10/26 07:22:35;;;;;;;1.45;0.90;;;;;;;14.34;100.00;98249.25;5054901;28;20041;-76
2023/10/26 07:25:06;;;;;;;2.60;1.20;;;;;;;14.55;100.00;98261.41;5052445;28;20079;-76
2023/10/26 07:27:33;;;;;;;2.58;0.95;;;;;;;14.75;100.00;98263.38;5053616;28;20397;-75
2023/10/26 07:30:01;;;;;;;0.90;0.80;;;;;;;14.93;100.00;98260.72;5053035;28;20029;-76
2023/10/26 07:32:27;;;;;;;1.52;1.13;;;;;;;15.16;100.00;98264.41;5053017;28;20072;-75
2023/10/26 07:34:55;;;;;;;1.50;1.05;;;;;;;15.41;100.00;98265.38;5054421;28;20117;-75
2023/10/26 07:37:21;;;;;;;4.90;0.95;;;;;;;15.67;100.00;98267.06;5054144;28;20055;-77
2023/10/26 07:39:48;;;;;;;1.88;0.90;;;;;;;15.97;100.00;98264.13;5053216;28;20409;-77
2023/10/26 07:42:15;;;;;;;1.98;0.70;;;;;;;16.24;100.00;98261.56;5053886;28;20166;-75
2023/10/26 07:44:43;;;;;;;1.88;0.77;;;;;;;16.35;100.00;98266.88;5053268;28;20116;-76
2023/10/26 07:47:10;;;;;;;1.15;0.60;;;;;;;16.35;100.00;98252.47;5053595;28;20056;-76
2023/10/26 07:49:36;;;;;;;5.25;1.00;;;;;;;16.34;100.00;98264.59;5053846;28;20111;-75
2023/10/26 07:52:03;;;;;;;3.95;1.13;;;;;;;16.30;100.00;98258.47;5053798;28;20027;-77
2023/10/26 07:54:30;;;;;;;0.50;0.50;;;;;;;16.30;100.00;98261.34;5053872;28;20029;-77
2023/10/26 07:56:57;;;;;;;2.88;0.90;;;;;;;16.25;100.00;98262.31;5052833;28;20041;-75
2023/10/26 07:59:23;;;;;;;0.90;0.90;;;;;;;16.17;100.00;98261.56;5053673;28;20040;-77
2023/10/26 08:01:49;;;;;;;1.08;0.88;;;;;;;16.16;100.00;98268.69;5054616;28;20033;-76
2023/10/26 08:04:16;;;;;;;0.70;0.60;;;;;;;16.07;100.00;98264.28;5055324;28;20036;-77
2023/10/26 08:06:42;;;;;;;0.68;0.55;;;;;;;15.95;100.00;98278.38;5054339;28;20079;-76
2023/10/26 08:09:07;;;;;;;1.45;0.60;;;;;;;15.88;100.00;98270.50;5053080;28;20079;-78
2023/10/26 08:11:34;;;;;;;0.90;0.60;;;;;;;15.80;100.00;98269.75;5052721;28;20017;-76
2023/10/26 08:14:05;;;;;;;0.40;0.40;;;;;;;15.69;100.00;98270.94;5053363;28;20063;-76
2023/10/26 08:16:32;;;;;;;1.63;0.63;;;;;;;15.55;100.00;98266.69;5052699;28;20025;-76
2023/10/26 08:18:57;;;;;;;0.60;0.60;;;;;;;15.42;100.00;98278.41;5050224;28;20040;-76
2023/10/26 08:21:22;;;;;;;1.40;0.50;;;;;;;15.32;100.00;98265.19;5052005;28;20359;-76
2023/10/26 08:23:49;;;;;;;1.27;0.70;;;;;;;15.24;100.00;98274.56;5053710;28;20072;-81
2023/10/26 08:26:16;;;;;;;5.32;0.77;;;;;;;15.18;100.00;98276.88;5053224;28;20386;-77
2023/10/26 08:28:41;;;;;;;0.90;0.68;;;;;;;15.16;100.00;98279.56;5034677;28;20039;-76
2023/10/26 08:31:08;;;;;;;2.20;1.10;;;;;;;15.15;100.00;98280.91;5051785;28;20115;-77
2023/10/26 08:33:34;;;;;;;1.27;0.93;;;;;;;15.16;100.00;98290.31;5053430;28;20032;-76
2023/10/26 08:36:07;;;;;;;0.98;0.70;;;;;;;15.16;100.00;98301.81;5051973;28;20036;-76
2023/10/26 08:38:32;;;;;;;2.60;0.85;;;;;;;15.09;100.00;98288.16;5053534;28;20033;-77
2023/10/26 08:40:58;;;;;;;1.42;0.80;;;;;;;15.19;100.00;98298.53;5053103;28;20032;-76
2023/10/26 08:43:28;;;;;;;1.65;0.82;;;;;;;15.24;100.00;98300.47;5053358;28;20032;-77
2023/10/26 08:45:58;;;;;;;1.35;0.80;;;;;;;15.30;100.00;98296.63;5052830;28;20056;-77
2023/10/26 08:48:25;;;;;;;1.77;1.10;;;;;;;15.36;100.00;98302.97;5052119;28;20107;-76
2023/10/26 08:50:57;;;;;;;1.95;1.00;;;;;;;15.37;100.00;98304.47;5051893;28;20275;-77
2023/10/26 08:53:25;;;;;;;1.13;0.80;;;;;;;15.34;100.00;98308.53;5052848;28;20024;-76
2023/10/26 08:55:59;;;;;;;4.53;0.80;;;;;;;15.30;100.00;98308.16;5052372;28;20029;-76
2023/10/26 08:58:29;;;;;;;1.15;0.82;;;;;;;15.28;100.00;98311.59;5052149;28;20024;-77
2023/10/26 09:00:56;;;;;;;0.88;0.73;;;;;;;15.27;100.00;98304.28;5051958;28;20474;-78
2023/10/26 09:03:22;;;;;;;2.38;0.85;;;;;;;15.22;100.00;98302.38;5053332;28;20033;-78
2023/10/26 09:05:56;;;;;;;1.25;0.80;;;;;;;15.31;100.00;98312.56;5052787;28;20048;-78
2023/10/26 09:08:23;;;;;;;2.00;1.17;;;;;;;15.35;100.00;98307.19;5051528;28;20474;-78
2023/10/26 09:11:31;;;;;;;1.13;0.90;;;;;;;15.46;100.00;98303.94;5053511;28;20037;-76
2023/10/26 09:14:19;;;;;;;1.48;1.05;;;;;;;15.59;100.00;98303.75;5050635;28;20421;-75
2023/10/26 09:16:45;;;;;;;2.47;1.02;;;;;;;15.71;100.00;98309.91;5051557;28;20033;-77
2023/10/26 09:19:16;;;;;;;1.05;0.95;;;;;;;15.81;100.00;98305.09;5050205;28;20041;-80
2023/10/26 09:22:12;;;;;;;1.98;0.57;;;;;;;15.96;100.00;98311.56;5052862;28;20065;-78
2023/10/26 09:24:39;;;;;;;1.60;0.70;;;;;;;15.97;100.00;98307.34;5052228;28;20048;-78
2023/10/26 09:27:16;;;;;;;3.08;1.02;;;;;;;16.04;100.00;98306.56;5052089;28;20045;-77
2023/10/26 09:29:42;;;;;;;0.68;0.68;;;;;;;16.04;100.00;98309.47;5056535;28;20037;-77
2023/10/26 09:32:10;;;;;;;0.65;0.57;;;;;;;16.05;100.00;98308.13;5038818;28;20450;-75
2023/10/26 09:34:48;;;;;;;0.68;0.68;;;;;;;16.03;100.00;98304.28;5056762;28;20021;-76
2023/10/26 09:37:14;;;;;;;1.75;0.80;;;;;;;16.23;100.00;98316.91;5055399;28;20029;-76
2023/10/26 09:39:45;;;;;;;0.65;0.50;;;;;;;16.37;100.00;98303.78;5056274;28;20056;-80
2023/10/26 09:42:13;;;;;;;0.85;0.68;;;;;;;16.62;100.00;98298.13;5056892;28;20531;-79
2023/10/26 09:44:39;;;;;;;2.45;0.70;;;;;;;16.83;100.00;98302.25;5054829;28;20398;-76
2023/10/26 09:47:06;;;;;;;1.52;0.70;;;;;;;17.02;100.00;98319.06;5038166;28;20045;-80
2023/10/26 09:49:32;;;;;;;0.90;0.70;;;;;;;17.23;100.00;98315.84;5039416;28;20025;-78
2023/10/26 09:51:58;;;;;;;1.30;0.65;;;;;;;17.45;100.00;98314.16;5057206;28;20477;-77
2023/10/26 09:54:28;;;;;;;1.77;0.80;;;;;;;17.64;100.00;98309.38;5056807;28;20040;-77
2023/10/26 09:56:59;;;;;;;0.82;0.75;;;;;;;17.87;100.00;98317.09;5056082;28;20048;-78
2023/10/26 09:59:25;;;;;;;1.20;1.10;;;;;;;18.02;100.00;98311.94;5055927;28;20032;-81
2023/10/26 10:02:16;;;;;;;1.40;0.73;;;;;;;18.10;100.00;98306.81;5057187;28;20377;-81
2023/10/26 10:04:50;;;;;;;1.42;1.02;;;;;;;18.11;100.00;98293.13;5056510;28;20036;-79
2023/10/26 10:07:19;;;;;;;2.28;0.90;;;;;;;18.19;100.00;98311.16;5054417;28;20041;-76
2023/10/26 10:10:05;;;;;;;0.60;0.60;;;;;;;18.25;100.00;98303.00;5055771;28;20443;-76
2023/10/26 10:12:32;;;;;;;2.08;0.80;;;;;;;18.31;100.00;98302.78;5071275;28;20028;-76
2023/10/26 10:15:08;;;;;;;2.05;1.35;;;;;;;18.44;100.00;98299.53;5055994;28;20100;-77
2023/10/26 10:17:44;;;;;;;3.55;1.05;;;;;;;18.59;100.00;98287.75;5037991;28;20037;-77
2023/10/26 10:20:20;;;;;;;2.33;1.00;;;;;;;18.75;100.00;98291.22;5055992;28;20055;-78
2023/10/26 10:22:58;;;;;;;2.83;1.10;;;;;;;18.80;100.00;98285.19;5055888;28;20434;-77
2023/10/26 10:25:50;;;;;;;2.05;1.33;;;;;;;18.76;100.00;98281.97;5054063;28;20032;-77
2023/10/26 10:28:18;;;;;;;1.50;1.20;;;;;;;18.72;100.00;98283.75;5047387;28;20506;-79
2023/10/26 10:30:57;;;;;;;1.52;0.90;;;;;;;18.62;100.00;98278.66;5054154;28;20075;-76
2023/10/26 10:33:28;;;;;;;4.78;1.13;;;;;;;18.56;100.00;98283.97;5055010;28;20033;-78
2023/10/26 10:36:08;;;;;;;2.00;1.30;;;;;;;18.43;100.00;98280.63;5037496;28;20055;-78
2023/10/26 10:38:38;;;;;;;4.60;1.23;;;;;;;18.29;100.00;98274.41;5054078;28;20055;-77
2023/10/26 10:41:07;;;;;;;4.72;1.20;;;;;;;18.26;100.00;98269.84;5054344;28;20083;-78
2023/10/26 10:43:44;;;;;;;3.10;1.17;;;;;;;18.20;100.00;98269.31;5054121;28;20075;-77
2023/10/26 10:46:23;;;;;;;3.05;1.10;;;;;;;18.09;100.00;98275.59;5053875;28;20053;-77
2023/10/26 10:49:07;;;;;;;2.33;1.30;;;;;;;17.94;100.00;98272.88;5055391;28;20025;-78
2023/10/26 10:51:52;;;;;;;3.78;1.45;;;;;;;17.73;100.00;98268.25;5053970;28;20040;-75
2023/10/26 10:54:22;;;;;;;3.17;1.38;;;;;;;17.58;100.00;98276.34;5054019;28;20470;-78
2023/10/26 10:57:09;;;;;;;3.47;1.43;;;;;;;17.45;100.00;98267.97;5053803;28;20033;-77
2023/10/26 10:59:36;;;;;;;3.20;1.30;;;;;;;17.29;100.00;98275.97;5055017;28;20087;-77
2023/10/26 11:02:14;;;;;;;3.58;1.63;;;;;;;17.13;100.00;98277.44;5055091;28;20043;-80
2023/10/26 11:04:57;;;;;;;7.20;1.55;;;;;;;16.95;100.00;98285.25;5036505;28;20048;-81
2023/10/26 11:07:41;;;;;;;4.10;1.70;;;;;;;16.72;100.00;98278.84;5053040;28;20056;-79
2023/10/26 11:10:10;;;;;;;2.25;1.63;;;;;;;16.59;100.00;98282.78;5055042;28;20540;-78
2023/10/26 11:12:38;;;;;;;3.30;1.85;;;;;;;16.45;100.00;98281.47;5054383;28;20474;-81
2023/10/26 11:15:04;;;;;;;2.63;1.50;;;;;;;16.31;100.00;98289.56;5055435;28;20036;-78
2023/10/26 11:17:31;;;;;;;2.60;1.08;;;;;;;16.17;100.00;98278.88;5053987;28;20024;-77
2023/10/26 11:19:57;;;;;;;4.68;1.45;;;;;;;16.04;100.00;98294.28;5053338;28;20036;-78
2023/10/26 11:22:23;;;;;;;1.25;1.00;;;;;;;15.88;100.00;98287.78;5053300;28;20037;-77
2023/10/26 11:24:53;;;;;;;2.75;1.17;;;;;;;15.79;100.00;98299.91;5054266;28;20040;-78